createdAt,value
2018-08-30T00:00:52.836Z,100043.09
2018-08-30T00:04:02.748Z,100054.58
2018-08-30T00:07:10.761Z,100051.64
2018-08-30T00:10:16.945Z,100051.53
2018-08-30T00:17:28.035Z,100055.06
2018-08-30T00:24:33.553Z,100063.63
2018-08-30T00:27:45.541Z,100080.32
2018-08-30T00:30:50.848Z,100084.08
2018-08-30T00:33:57.465Z,100088.61
2018-08-30T00:37:03.505Z,100091.74
2018-08-30T00:40:11.097Z,100099.42
2018-08-30T00:43:14.330Z,100103.84
2018-08-30T00:46:17.885Z,100111.14
2018-08-30T00:49:23.260Z,100116.58
2018-08-30T00:52:26.308Z,100117.67
2018-08-30T00:55:29.759Z,100124.77
2018-08-30T00:58:39.562Z,100132.33
2018-08-30T01:01:42.811Z,100139.33
2018-08-30T01:04:49.612Z,100147.52
2018-08-30T01:07:52.720Z,100155.10
2018-08-30T01:10:55.889Z,100154.45
2018-08-30T01:13:59.040Z,100168.00
2018-08-30T01:17:16.571Z,100179.10
2018-08-30T01:20:20.739Z,100172.64
2018-08-30T01:23:23.929Z,100179.44
2018-08-30T01:26:27.192Z,100186.38
2018-08-30T01:29:30.269Z,100183.84
2018-08-30T01:32:33.473Z,100196.52
2018-08-30T01:35:36.583Z,100197.62
2018-08-30T01:38:39.803Z,100204.66
2018-08-30T01:41:43.282Z,100195.83
2018-08-30T01:44:50.064Z,100199.84
2018-08-30T01:47:53.151Z,100202.19
2018-08-30T01:50:57.515Z,100203.28
2018-08-30T01:54:00.732Z,100204.41
2018-08-30T01:57:06.209Z,100204.47
2018-08-30T02:00:09.397Z,100207.41
2018-08-30T02:03:18.863Z,100212.14
2018-08-30T02:06:22.036Z,100209.69
2018-08-30T02:09:25.065Z,100211.66
2018-08-30T02:12:28.190Z,100203.93
2018-08-30T02:15:31.262Z,100198.97
2018-08-30T02:18:34.304Z,100203.48
2018-08-30T02:21:37.405Z,100203.70
2018-08-30T02:24:40.423Z,100206.00
2018-08-30T02:27:43.467Z,100209.45
2018-08-30T02:30:46.622Z,100209.20
2018-08-30T02:33:49.738Z,100205.34
2018-08-30T02:36:52.828Z,100213.38
2018-08-30T02:39:55.990Z,100220.58
2018-08-30T02:42:59.162Z,100214.72
2018-08-30T02:46:02.618Z,100222.23
2018-08-30T02:49:05.964Z,100227.66
2018-08-30T02:52:09.011Z,100216.55
2018-08-30T02:55:12.090Z,100218.53
2018-08-30T02:58:15.176Z,100227.19
2018-08-30T03:01:18.701Z,100230.25
2018-08-30T03:04:21.754Z,100228.45
2018-08-30T03:07:24.854Z,100238.92
2018-08-30T03:10:27.911Z,100238.84
2018-08-30T03:13:30.945Z,100239.92
2018-08-30T03:16:34.090Z,100239.38
2018-08-30T03:19:37.185Z,100239.80
2018-08-30T03:22:40.957Z,100241.36
2018-08-30T03:25:44.099Z,100244.67
2018-08-30T03:28:47.115Z,100240.16
2018-08-30T03:31:50.258Z,100245.67
2018-08-30T03:34:53.491Z,100252.84
2018-08-30T03:37:56.558Z,100259.06
2018-08-30T03:40:59.707Z,100260.07
2018-08-30T03:44:02.775Z,100257.73
2018-08-30T03:47:05.924Z,100259.23
2018-08-30T03:50:08.958Z,100265.06
2018-08-30T03:53:11.983Z,100267.09
2018-08-30T03:56:15.002Z,100270.41
2018-08-30T03:59:18.101Z,100267.91
2018-08-30T04:02:21.172Z,100274.53
2018-08-30T04:05:24.236Z,100280.39
2018-08-30T04:08:27.319Z,100280.36
2018-08-30T04:11:30.303Z,100288.95
2018-08-30T04:14:33.357Z,100285.28
2018-08-30T04:17:36.344Z,100282.40
2018-08-30T04:20:39.388Z,100289.16
2018-08-30T04:23:42.487Z,100286.90
2018-08-30T04:26:45.610Z,100288.81
2018-08-30T04:29:48.733Z,100282.83
2018-08-30T04:32:51.843Z,100295.00
2018-08-30T04:35:55.017Z,100286.56
2018-08-30T04:38:58.161Z,100285.97
2018-08-30T04:42:01.196Z,100286.84
2018-08-30T04:45:04.739Z,100293.30
2018-08-30T04:48:07.773Z,100297.38
2018-08-30T04:51:10.844Z,100301.40
2018-08-30T04:54:13.886Z,100305.81
2018-08-30T04:57:16.951Z,100317.81
2018-08-30T05:00:20.134Z,100317.35
2018-08-30T05:03:23.253Z,100319.90
2018-08-30T05:06:26.385Z,100325.03
2018-08-30T05:09:29.494Z,100329.27
2018-08-30T05:12:32.636Z,100327.58
2018-08-30T05:15:35.658Z,100322.70
2018-08-30T05:18:38.687Z,100334.75
2018-08-30T05:21:41.792Z,100340.56
2018-08-30T05:24:44.816Z,100337.49
2018-08-30T05:27:47.933Z,100342.59
2018-08-30T05:30:51.042Z,100351.97
2018-08-30T05:33:54.106Z,100346.47
2018-08-30T05:36:57.148Z,100354.47
2018-08-30T05:40:00.213Z,100353.59
2018-08-30T05:43:03.686Z,100358.91
2018-08-30T05:46:06.901Z,100364.48
2018-08-30T05:49:09.899Z,100362.63
2018-08-30T05:52:12.975Z,100364.25
2018-08-30T05:55:16.004Z,100369.73
2018-08-30T05:58:19.083Z,100376.13
2018-08-30T06:01:22.184Z,100373.98
2018-08-30T06:04:25.246Z,100376.53
2018-08-30T06:07:28.335Z,100389.08
2018-08-30T06:10:46.427Z,100384.22
2018-08-30T06:13:49.502Z,100392.02
2018-08-30T06:16:52.562Z,100388.64
2018-08-30T06:19:55.567Z,100399.25
2018-08-30T06:22:58.656Z,100397.20
2018-08-30T06:26:01.703Z,100398.66
2018-08-30T06:29:05.427Z,100401.05
2018-08-30T06:32:08.639Z,100405.23
2018-08-30T06:35:11.749Z,100403.91
2018-08-30T06:38:14.737Z,100410.77
2018-08-30T06:41:17.841Z,100410.34
2018-08-30T06:44:20.911Z,100408.80
2018-08-30T06:47:23.997Z,100409.71
2018-08-30T06:50:27.075Z,100420.55
2018-08-30T06:53:30.226Z,100424.24
2018-08-30T06:56:33.334Z,100430.10
2018-08-30T06:59:36.418Z,100427.86
2018-08-30T07:02:39.459Z,100425.98
2018-08-30T07:05:42.495Z,100432.38
2018-08-30T07:08:45.824Z,100435.70
2018-08-30T07:11:48.936Z,100436.39
2018-08-30T07:14:52.082Z,100427.73
2018-08-30T07:17:55.129Z,100443.25
2018-08-30T07:20:58.198Z,100443.30
2018-08-30T07:24:01.148Z,100452.00
2018-08-30T07:27:04.291Z,100456.03
2018-08-30T07:30:11.145Z,100463.27
2018-08-30T07:33:14.188Z,100459.62
2018-08-30T07:36:17.270Z,100464.95
2018-08-30T07:39:20.339Z,100471.58
2018-08-30T07:42:23.350Z,100470.83
2018-08-30T07:45:26.422Z,100476.53
2018-08-30T07:48:29.647Z,100482.23
2018-08-30T07:51:32.675Z,100488.33
2018-08-30T07:54:35.724Z,100488.45
2018-08-30T07:57:38.806Z,100487.59
2018-08-30T08:00:41.893Z,100491.17
2018-08-30T08:03:44.883Z,100488.91
2018-08-30T08:06:47.956Z,100495.65
2018-08-30T08:09:50.971Z,100505.16
2018-08-30T08:12:53.994Z,100497.44
2018-08-30T08:15:57.078Z,100504.00
2018-08-30T08:19:00.348Z,100504.31
2018-08-30T08:22:03.413Z,100506.02
2018-08-30T08:25:06.496Z,100512.84
2018-08-30T08:28:09.630Z,100508.95
2018-08-30T08:31:12.674Z,100507.78
2018-08-30T08:34:15.781Z,100509.02
2018-08-30T08:37:18.795Z,100508.30
2018-08-30T08:40:21.837Z,100509.48
2018-08-30T08:43:24.857Z,100520.58
2018-08-30T08:46:27.930Z,100518.36
2018-08-30T08:49:30.861Z,100526.46
2018-08-30T08:52:33.889Z,100519.86
2018-08-30T08:55:36.942Z,100523.47
2018-08-30T08:58:40.030Z,100529.70
2018-08-30T09:01:43.031Z,100527.80
2018-08-30T09:04:46.101Z,100524.34
2018-08-30T09:07:49.461Z,100527.75
2018-08-30T09:10:52.502Z,100527.20
2018-08-30T09:13:55.526Z,100534.54
2018-08-30T09:16:58.603Z,100527.36
2018-08-30T09:20:01.731Z,100529.07
2018-08-30T09:23:11.630Z,100531.77
2018-08-30T09:26:14.506Z,100534.80
2018-08-30T09:29:17.662Z,100531.98
2018-08-30T09:32:20.743Z,100532.83
2018-08-30T09:35:23.818Z,100541.53
2018-08-30T09:38:27.766Z,100537.12
2018-08-30T09:41:30.788Z,100528.12
2018-08-30T09:44:33.818Z,100530.59
2018-08-30T09:47:36.849Z,100523.86
2018-08-30T09:50:40.047Z,100528.31
2018-08-30T09:53:43.043Z,100517.34
2018-08-30T09:56:46.214Z,100523.05
2018-08-30T09:59:49.174Z,100522.78
2018-08-30T10:02:52.219Z,100527.25
2018-08-30T10:05:55.401Z,100520.84
2018-08-30T10:08:58.864Z,100529.46
2018-08-30T10:12:01.902Z,100524.52
2018-08-30T10:15:05.570Z,100529.29
2018-08-30T10:18:08.731Z,100535.59
2018-08-30T10:21:11.730Z,100538.22
2018-08-30T10:24:14.757Z,100538.87
2018-08-30T10:27:17.994Z,100531.50
2018-08-30T10:30:21.077Z,100538.41
2018-08-30T10:33:24.317Z,100528.61
2018-08-30T10:36:27.378Z,100527.05
2018-08-30T10:39:30.452Z,100524.82
2018-08-30T10:42:33.574Z,100528.82
2018-08-30T10:45:36.660Z,100533.09
2018-08-30T10:48:39.751Z,100537.88
2018-08-30T10:51:42.900Z,100532.84
2018-08-30T10:54:46.078Z,100531.70
2018-08-30T10:57:49.206Z,100540.70
2018-08-30T11:00:52.342Z,100538.48
2018-08-30T11:03:55.743Z,100529.91
2018-08-30T11:06:58.903Z,100528.49
2018-08-30T11:10:02.023Z,100527.14
2018-08-30T11:13:05.192Z,100521.31
2018-08-30T11:16:08.374Z,100525.17
2018-08-30T11:19:11.372Z,100530.82
2018-08-30T11:22:14.469Z,100534.98
2018-08-30T11:25:17.846Z,100537.34
2018-08-30T11:28:20.906Z,100539.45
2018-08-30T11:31:23.910Z,100546.62
2018-08-30T11:34:26.967Z,100544.58
2018-08-30T11:37:30.109Z,100547.36
2018-08-30T11:40:33.060Z,100542.66
2018-08-30T11:43:36.184Z,100544.45
2018-08-30T11:46:39.339Z,100549.60
2018-08-30T11:49:42.420Z,100545.32
2018-08-30T11:52:45.487Z,100536.30
2018-08-30T11:55:48.491Z,100542.00
2018-08-30T11:58:51.610Z,100538.27
2018-08-30T12:01:54.622Z,100529.61
2018-08-30T12:04:57.754Z,100540.00
2018-08-30T12:08:00.884Z,100551.26
2018-08-30T12:11:04.081Z,100551.69
2018-08-30T12:14:06.943Z,100559.84
2018-08-30T12:17:09.974Z,100561.19
2018-08-30T12:20:12.980Z,100550.29
2018-08-30T12:23:15.953Z,100556.53
2018-08-30T12:26:18.988Z,100558.73
2018-08-30T12:29:22.044Z,100563.03
2018-08-30T12:32:25.304Z,100563.03
2018-08-30T12:35:28.395Z,100559.01
2018-08-30T12:38:31.502Z,100561.03
2018-08-30T12:41:34.626Z,100555.87
2018-08-30T12:44:37.690Z,100556.09
2018-08-30T12:47:40.763Z,100552.98
2018-08-30T12:50:44.015Z,100554.50
2018-08-30T12:53:47.641Z,100552.21
2018-08-30T12:56:50.770Z,100557.00
2018-08-30T12:59:54.035Z,100563.80
2018-08-30T13:05:59.795Z,100558.75
2018-08-30T13:09:02.818Z,100556.46
2018-08-30T13:12:06.420Z,100547.92
2018-08-30T13:15:10.147Z,100556.60
2018-08-30T13:18:13.254Z,100550.00
2018-08-30T13:21:16.485Z,100550.77
2018-08-30T13:24:20.109Z,100548.27
2018-08-30T13:27:29.872Z,100550.97
2018-08-30T13:30:33.499Z,100542.59
2018-08-30T13:33:37.018Z,100553.78
2018-08-30T13:36:41.899Z,100551.36
2018-08-30T13:39:45.284Z,100549.69
2018-08-30T13:42:48.622Z,100541.05
2018-08-30T13:45:51.612Z,100545.52
2018-08-30T13:48:55.212Z,100553.48
2018-08-30T13:51:58.513Z,100546.82
2018-08-30T13:55:02.033Z,100558.02
2018-08-30T13:58:05.219Z,100556.78
2018-08-30T14:01:08.401Z,100559.05
2018-08-30T14:04:11.133Z,100551.54
2018-08-30T14:07:14.376Z,100560.96
2018-08-30T14:10:17.679Z,100557.28
2018-08-30T14:13:20.826Z,100559.80
2018-08-30T14:16:23.667Z,100562.84
2018-08-30T14:19:26.925Z,100569.78
2018-08-30T14:22:30.212Z,100577.23
2018-08-30T14:25:33.358Z,100570.52
2018-08-30T14:28:36.655Z,100573.34
2018-08-30T14:31:39.864Z,100569.12
2018-08-30T14:34:42.956Z,100570.91
2018-08-30T14:37:46.129Z,100578.52
2018-08-30T14:40:49.255Z,100574.94
2018-08-30T14:43:52.416Z,100576.09
2018-08-30T14:46:55.639Z,100580.02
2018-08-30T14:49:58.800Z,100580.98
2018-08-30T14:53:02.065Z,100573.11
2018-08-30T14:56:05.503Z,100584.09
2018-08-30T14:59:08.764Z,100586.13
2018-08-30T15:02:11.939Z,100580.73
2018-08-30T15:05:15.300Z,100579.09
2018-08-30T15:08:18.472Z,100575.63
2018-08-30T15:11:21.821Z,100574.66
2018-08-30T15:14:24.897Z,100577.45
2018-08-30T15:17:28.178Z,100576.10
2018-08-30T15:20:31.313Z,100577.53
2018-08-30T15:23:34.737Z,100576.19
2018-08-30T15:26:38.081Z,100580.23
2018-08-30T15:29:41.123Z,100582.75
2018-08-30T15:32:44.332Z,100577.33
2018-08-30T15:35:47.540Z,100586.59
2018-08-30T15:38:50.703Z,100578.14
2018-08-30T15:41:53.915Z,100586.02
2018-08-30T15:44:57.110Z,100583.23
2018-08-30T15:48:00.274Z,100585.83
2018-08-30T15:51:03.427Z,100577.93
2018-08-30T15:54:06.851Z,100575.81
2018-08-30T15:57:10.109Z,100586.74
2018-08-30T16:00:14.849Z,100587.81
2018-08-30T16:03:17.997Z,100583.97
2018-08-30T16:06:21.186Z,100580.92
2018-08-30T16:09:25.109Z,100578.89
2018-08-30T16:12:28.337Z,100580.38
2018-08-30T16:15:31.583Z,100578.58
2018-08-30T16:18:34.965Z,100571.68
2018-08-30T16:21:38.293Z,100571.68
2018-08-30T16:24:41.401Z,100572.20
2018-08-30T16:27:44.514Z,100577.66
2018-08-30T16:30:47.858Z,100574.02
2018-08-30T16:33:51.376Z,100571.12
2018-08-30T16:36:54.569Z,100575.48
2018-08-30T16:39:57.782Z,100580.78
2018-08-30T16:43:00.962Z,100579.05
2018-08-30T16:46:04.150Z,100586.24
2018-08-30T16:49:07.693Z,100588.56
2018-08-30T16:52:10.939Z,100585.84
2018-08-30T16:55:14.069Z,100586.02
2018-08-30T16:58:17.273Z,100582.47
2018-08-30T17:01:20.910Z,100583.66
2018-08-30T17:04:24.171Z,100589.77
2018-08-30T17:07:27.359Z,100585.19
2018-08-30T17:10:31.030Z,100584.86
2018-08-30T17:13:34.249Z,100590.48
2018-08-30T17:16:37.363Z,100588.37
2018-08-30T17:19:40.616Z,100587.64
2018-08-30T17:22:43.706Z,100602.58
2018-08-30T17:25:46.869Z,100596.00
2018-08-30T17:28:50.073Z,100599.33
2018-08-30T17:31:53.359Z,100602.67
2018-08-30T17:34:56.691Z,100603.14
2018-08-30T17:38:00.528Z,100604.56
2018-08-30T17:41:03.901Z,100605.34
2018-08-30T17:44:07.656Z,100605.82
2018-08-30T17:47:10.952Z,100601.86
2018-08-30T17:50:14.075Z,100602.52
2018-08-30T17:53:17.291Z,100613.87
2018-08-30T17:56:20.320Z,100604.32
2018-08-30T17:59:23.337Z,100612.45
2018-08-30T18:02:26.540Z,100620.22
2018-08-30T18:05:29.671Z,100617.53
2018-08-30T18:08:32.620Z,100613.58
2018-08-30T18:11:35.804Z,100621.41
2018-08-30T18:14:38.918Z,100624.61
2018-08-30T18:17:42.392Z,100632.75
2018-08-30T18:20:46.033Z,100633.79
2018-08-30T18:23:49.164Z,100636.14
2018-08-30T18:26:52.348Z,100635.34
2018-08-30T18:29:56.136Z,100636.91
2018-08-30T18:33:00.508Z,100647.25
2018-08-30T18:36:03.651Z,100650.13
2018-08-30T18:39:09.150Z,100649.73
2018-08-30T18:42:12.353Z,100652.92
2018-08-30T18:45:15.494Z,100662.38
2018-08-30T18:48:18.683Z,100660.00
2018-08-30T18:51:22.180Z,100668.69
2018-08-30T18:54:25.440Z,100663.25
2018-08-30T18:57:28.843Z,100668.05
2018-08-30T19:00:31.954Z,100667.70
2018-08-30T19:03:35.028Z,100675.16
2018-08-30T19:06:38.200Z,100687.94
2018-08-30T19:09:41.961Z,100686.41
2018-08-30T19:12:45.357Z,100691.53
2018-08-30T19:15:54.362Z,100694.50
2018-08-30T19:19:02.992Z,100692.25
2018-08-30T19:22:06.422Z,100702.45
2018-08-30T19:25:12.962Z,100700.58
2018-08-30T19:28:16.131Z,100705.29
2018-08-30T19:31:19.336Z,100702.41
2018-08-30T19:34:22.519Z,100694.77
2018-08-30T19:37:25.705Z,100701.27
2018-08-30T19:40:34.366Z,100707.02
2018-08-30T19:43:37.575Z,100707.64
2018-08-30T19:46:40.740Z,100704.81
2018-08-30T19:49:43.790Z,100703.20
2018-08-30T19:52:47.290Z,100704.55
2018-08-30T19:55:50.462Z,100707.84
2018-08-30T19:58:54.626Z,100706.42
2018-08-30T20:01:57.686Z,100707.92
2018-08-30T20:05:01.014Z,100708.31
2018-08-30T20:08:04.644Z,100703.02
2018-08-30T20:11:07.781Z,100706.41
2018-08-30T20:14:10.919Z,100706.02
2018-08-30T20:17:14.061Z,100712.59
2018-08-30T20:20:17.161Z,100708.78
2018-08-30T20:23:20.570Z,100712.98
2018-08-30T20:26:23.774Z,100711.27
2018-08-30T20:29:26.887Z,100716.00
2018-08-30T20:32:30.015Z,100712.72
2018-08-30T20:35:33.230Z,100713.12
2018-08-30T20:38:36.467Z,100715.40
2018-08-30T20:41:39.715Z,100693.62
2018-08-30T20:44:42.945Z,100721.69
2018-08-30T20:47:46.123Z,100721.34
2018-08-30T20:50:49.247Z,100725.91
2018-08-30T20:53:52.410Z,100725.80
2018-08-30T20:56:55.527Z,100724.55
2018-08-30T20:59:58.544Z,100727.45
2018-08-30T21:03:01.623Z,100725.27
2018-08-30T21:06:04.645Z,100726.83
2018-08-30T21:09:08.970Z,100729.70
2018-08-30T21:12:11.908Z,100726.06
2018-08-30T21:15:14.811Z,100726.52
2018-08-30T21:18:18.160Z,100724.55
2018-08-30T21:21:21.154Z,100725.53
2018-08-30T21:24:25.781Z,100723.31
2018-08-30T21:27:28.975Z,100725.53
2018-08-30T21:30:32.101Z,100724.77
2018-08-30T21:33:35.229Z,100733.47
2018-08-30T21:36:38.183Z,100727.33
2018-08-30T21:39:41.313Z,100728.81
2018-08-30T21:42:44.454Z,100730.04
2018-08-30T21:45:47.590Z,100734.05
2018-08-30T21:48:51.012Z,100734.92
2018-08-30T21:51:54.225Z,100739.36
2018-08-30T21:54:57.316Z,100734.93
2018-08-30T21:58:00.299Z,100738.21
2018-08-30T22:01:03.258Z,100731.89
2018-08-30T22:04:07.006Z,100732.96
2018-08-30T22:07:10.047Z,100730.73
2018-08-30T22:10:13.080Z,100740.98
2018-08-30T22:13:16.236Z,100733.36
2018-08-30T22:16:19.337Z,100734.97
2018-08-30T22:19:22.382Z,100734.13
2018-08-30T22:22:25.555Z,100742.34
2018-08-30T22:25:28.567Z,100740.47
2018-08-30T22:28:31.605Z,100738.69
2018-08-30T22:31:34.968Z,100743.34
2018-08-30T22:34:38.083Z,100744.55
2018-08-30T22:37:41.099Z,100740.95
2018-08-30T22:40:44.112Z,100742.94
2018-08-30T22:43:47.277Z,100746.07
2018-08-30T22:46:50.311Z,100747.59
2018-08-30T22:49:53.366Z,100747.55
2018-08-30T22:52:56.454Z,100746.02
2018-08-30T22:55:59.506Z,100742.61
2018-08-30T22:59:02.528Z,100743.36
2018-08-30T23:02:05.455Z,100742.92
2018-08-30T23:05:08.412Z,100741.97
2018-08-30T23:08:11.422Z,100747.59
2018-08-30T23:11:14.421Z,100734.46
2018-08-30T23:14:18.066Z,100726.90
2018-08-30T23:17:21.170Z,100737.13
2018-08-30T23:20:24.333Z,100736.91
2018-08-30T23:23:27.430Z,100737.31
2018-08-30T23:26:30.586Z,100739.39
2018-08-30T23:29:33.583Z,100739.71
2018-08-30T23:32:36.633Z,100739.34
2018-08-30T23:35:39.572Z,100740.35
2018-08-30T23:38:42.496Z,100737.59
2018-08-30T23:41:46.657Z,100739.66
2018-08-30T23:44:49.652Z,100740.87
2018-08-30T23:47:52.673Z,100736.80
2018-08-30T23:50:55.731Z,100735.00
2018-08-30T23:53:58.741Z,100734.36
2018-08-30T23:57:01.737Z,100731.09
